createdAt,value
2022-12-15T00:02:13.803Z,42.63
2022-12-15T00:04:58.941Z,48.28
2022-12-15T00:07:44.247Z,43.30
2022-12-15T00:10:29.457Z,37.83
2022-12-15T00:13:14.604Z,40.00
2022-12-15T00:16:01.042Z,38.33
2022-12-15T00:18:45.937Z,31.25
2022-12-15T00:21:30.888Z,43.10
2022-12-15T00:24:15.759Z,36.08
2022-12-15T00:27:00.877Z,40.05
2022-12-15T00:29:45.698Z,30.33
2022-12-15T00:32:30.918Z,34.50
2022-12-15T00:35:16.238Z,24.60
2022-12-15T00:38:01.394Z,43.28
2022-12-15T00:40:27.901Z,23.83
2022-12-15T00:42:54.454Z,44.70
2022-12-15T00:45:21.004Z,39.88
2022-12-15T00:47:47.593Z,36.10
2022-12-15T00:50:32.465Z,38.60
2022-12-15T00:53:17.399Z,38.72
2022-12-15T00:56:02.287Z,37.78
2022-12-15T00:58:47.346Z,37.53
2022-12-15T01:01:32.540Z,35.25
2022-12-15T01:04:17.797Z,39.85
2022-12-15T01:07:02.927Z,38.65
2022-12-15T01:09:47.742Z,34.80
2022-12-15T01:12:32.949Z,36.83
2022-12-15T01:15:17.739Z,43.72
2022-12-15T01:18:02.899Z,35.85
2022-12-15T01:20:34.786Z,35.00
2022-12-15T01:23:01.466Z,41.75
2022-12-15T01:25:28.062Z,37.60
2022-12-15T01:27:55.103Z,34.10
2022-12-15T01:30:25.324Z,35.92
2022-12-15T01:32:52.579Z,40.67
2022-12-15T01:35:20.284Z,34.25
2022-12-15T01:37:49.883Z,32.85
2022-12-15T01:40:38.452Z,35.03
2022-12-15T01:43:11.794Z,35.00
2022-12-15T01:45:49.388Z,41.15
2022-12-15T01:48:38.770Z,41.30
2022-12-15T01:51:19.825Z,38.08
2022-12-15T01:54:09.953Z,27.38
2022-12-15T01:56:50.899Z,36.53
2022-12-15T01:59:23.226Z,27.60
2022-12-15T02:01:50.362Z,30.30
2022-12-15T02:04:21.562Z,26.05
2022-12-15T02:06:48.144Z,45.47
2022-12-15T02:09:15.379Z,34.42
2022-12-15T02:11:50.001Z,27.70
2022-12-15T02:14:34.534Z,30.80
2022-12-15T02:17:13.533Z,33.33
2022-12-15T02:19:55.268Z,36.72
2022-12-15T02:22:42.893Z,28.35
2022-12-15T02:25:33.595Z,33.67
2022-12-15T02:28:22.505Z,32.88
2022-12-15T02:31:17.328Z,34.92
2022-12-15T02:33:53.826Z,24.20
2022-12-15T02:36:37.298Z,27.90
2022-12-15T02:39:04.875Z,20.38
2022-12-15T02:41:38.176Z,31.52
2022-12-15T02:44:20.008Z,28.27
2022-12-15T02:47:04.889Z,27.58
2022-12-15T02:49:59.227Z,29.20
2022-12-15T02:52:55.207Z,34.75
2022-12-15T02:55:43.698Z,31.20
2022-12-15T02:58:34.354Z,36.25
2022-12-15T03:01:11.796Z,38.45
2022-12-15T03:03:40.061Z,39.55
2022-12-15T03:06:07.111Z,32.20
2022-12-15T03:08:33.639Z,37.25
2022-12-15T03:11:00.348Z,44.30
2022-12-15T03:13:26.958Z,36.55
2022-12-15T03:15:54.553Z,39.05
2022-12-15T03:18:21.732Z,33.15
2022-12-15T03:20:48.255Z,43.38
2022-12-15T03:23:15.573Z,36.70
2022-12-15T03:25:44.838Z,38.10
2022-12-15T03:28:11.433Z,38.05
2022-12-15T03:30:38.219Z,36.90
2022-12-15T03:33:04.848Z,25.73
2022-12-15T03:35:31.481Z,24.17
2022-12-15T03:37:58.047Z,26.40
2022-12-15T03:40:24.650Z,38.65
2022-12-15T03:42:51.360Z,33.97
2022-12-15T03:45:23.642Z,30.50
2022-12-15T03:47:51.069Z,25.60
2022-12-15T03:50:20.885Z,29.70
2022-12-15T03:52:58.688Z,31.85
2022-12-15T03:55:26.161Z,26.08
2022-12-15T03:57:52.827Z,29.20
2022-12-15T04:00:20.855Z,23.70
2022-12-15T04:02:50.332Z,30.30
2022-12-15T04:05:21.733Z,29.55
2022-12-15T04:07:48.317Z,23.85
2022-12-15T04:10:15.873Z,28.15
2022-12-15T04:12:42.458Z,39.42
2022-12-15T04:15:10.342Z,28.30
2022-12-15T04:17:37.338Z,38.55
2022-12-15T04:20:11.847Z,28.30
2022-12-15T04:22:40.654Z,27.85
2022-12-15T04:25:28.478Z,34.72
2022-12-15T04:28:13.970Z,33.50
2022-12-15T04:31:02.761Z,30.77
2022-12-15T04:33:48.351Z,46.67
2022-12-15T04:36:33.967Z,33.90
2022-12-15T04:39:19.393Z,29.13
2022-12-15T04:42:04.615Z,35.30
2022-12-15T04:44:50.418Z,35.90
2022-12-15T04:47:35.640Z,31.25
2022-12-15T04:50:20.702Z,34.20
2022-12-15T04:53:05.934Z,32.33
2022-12-15T04:55:54.980Z,29.67
2022-12-15T04:58:40.329Z,31.85
2022-12-15T05:01:26.096Z,33.47
2022-12-15T05:04:11.484Z,34.88
2022-12-15T05:06:56.635Z,50.53
2022-12-15T05:09:41.841Z,29.55
2022-12-15T05:12:26.793Z,33.28
2022-12-15T05:15:11.865Z,33.97
2022-12-15T05:17:56.805Z,26.98
2022-12-15T05:20:42.035Z,34.85
2022-12-15T05:23:26.928Z,28.60
2022-12-15T05:26:12.263Z,31.15
2022-12-15T05:28:57.064Z,29.08
2022-12-15T05:31:42.322Z,31.30
2022-12-15T05:34:08.870Z,29.73
2022-12-15T05:36:35.387Z,28.13
2022-12-15T05:39:02.016Z,31.20
2022-12-15T05:41:28.576Z,30.67
2022-12-15T05:43:55.099Z,30.88
2022-12-15T05:46:22.055Z,36.38
2022-12-15T05:48:48.610Z,29.00
2022-12-15T05:51:15.255Z,28.30
2022-12-15T05:53:42.612Z,38.78
2022-12-15T05:56:14.016Z,38.85
2022-12-15T05:58:45.451Z,34.58
2022-12-15T06:01:18.019Z,36.83
2022-12-15T06:03:45.053Z,35.05
2022-12-15T06:06:13.301Z,37.58
2022-12-15T06:08:41.727Z,38.65
2022-12-15T06:11:10.382Z,32.42
2022-12-15T06:13:36.952Z,35.50
2022-12-15T06:16:10.988Z,39.13
2022-12-15T06:18:41.196Z,26.20
2022-12-15T06:21:13.532Z,34.42
2022-12-15T06:23:40.885Z,28.25
2022-12-15T06:26:14.251Z,34.78
2022-12-15T06:28:41.639Z,33.78
2022-12-15T06:31:10.411Z,31.75
2022-12-15T06:33:37.635Z,32.53
2022-12-15T06:36:08.093Z,35.53
2022-12-15T06:38:36.109Z,39.08
2022-12-15T06:41:05.202Z,39.65
2022-12-15T06:43:34.424Z,36.53
2022-12-15T06:46:02.295Z,31.20
2022-12-15T06:48:30.338Z,34.45
2022-12-15T06:51:01.911Z,33.33
2022-12-15T06:53:28.751Z,39.55
2022-12-15T06:56:03.815Z,38.45
2022-12-15T06:58:30.610Z,39.90
2022-12-15T07:00:57.577Z,29.58
2022-12-15T07:03:24.896Z,33.22
2022-12-15T07:06:09.210Z,28.52
2022-12-15T07:11:11.403Z,29.90
2022-12-15T07:13:38.624Z,34.35
2022-12-15T07:16:06.934Z,40.42
2022-12-15T07:18:34.080Z,35.40
2022-12-15T07:21:05.951Z,36.40
2022-12-15T07:23:53.498Z,30.40
2022-12-15T07:26:20.236Z,24.70
2022-12-15T07:28:46.810Z,40.90
2022-12-15T07:31:13.470Z,29.65
2022-12-15T07:33:40.114Z,43.20
2022-12-15T07:36:08.488Z,36.72
2022-12-15T07:38:35.864Z,32.75
2022-12-15T07:41:05.033Z,39.03
2022-12-15T07:43:32.836Z,45.58
2022-12-15T07:46:00.151Z,46.08
2022-12-15T07:48:27.398Z,46.53
2022-12-15T07:51:02.890Z,41.25
2022-12-15T07:53:34.217Z,44.63
2022-12-15T07:56:10.081Z,50.63
2022-12-15T07:58:37.539Z,44.88
2022-12-15T08:01:07.294Z,39.67
2022-12-15T08:03:35.745Z,39.20
2022-12-15T08:06:11.993Z,43.03
2022-12-15T08:08:39.322Z,46.25
2022-12-15T08:11:11.010Z,37.42
2022-12-15T08:14:02.098Z,46.08
2022-12-15T08:16:25.537Z,46.83
2022-12-15T08:18:52.233Z,37.08
2022-12-15T08:21:18.750Z,42.40
2022-12-15T08:23:45.284Z,48.70
2022-12-15T08:26:15.121Z,45.33
2022-12-15T08:28:42.757Z,28.23
2022-12-15T08:31:11.944Z,23.17
2022-12-15T08:33:39.497Z,27.20
2022-12-15T08:36:08.997Z,32.58
2022-12-15T08:38:36.896Z,33.83
2022-12-15T08:41:17.869Z,29.98
2022-12-15T08:43:49.048Z,30.10
2022-12-15T08:46:22.407Z,29.63
2022-12-15T08:48:49.840Z,29.65
2022-12-15T08:51:17.059Z,34.05
2022-12-15T08:53:43.774Z,27.30
2022-12-15T08:56:14.018Z,40.88
2022-12-15T08:58:40.619Z,33.05
2022-12-15T09:01:10.777Z,30.20
2022-12-15T09:03:37.813Z,31.73
2022-12-15T09:06:06.079Z,33.00
2022-12-15T09:08:33.298Z,31.50
2022-12-15T09:11:00.974Z,32.42
2022-12-15T09:13:28.838Z,35.20
2022-12-15T09:16:09.483Z,29.33
2022-12-15T09:18:37.143Z,31.60
2022-12-15T09:21:05.496Z,34.33
2022-12-15T09:23:33.198Z,27.58
2022-12-15T09:26:11.511Z,31.65
2022-12-15T09:28:38.834Z,31.02
2022-12-15T09:31:06.885Z,27.65
2022-12-15T09:33:34.117Z,24.85
2022-12-15T09:36:00.889Z,27.27
2022-12-15T09:38:27.491Z,26.67
2022-12-15T09:40:54.156Z,26.48
2022-12-15T09:43:36.315Z,27.90
2022-12-15T09:46:17.543Z,29.70
2022-12-15T09:48:46.746Z,27.58
2022-12-15T09:51:18.513Z,29.40
2022-12-15T09:53:54.843Z,34.75
2022-12-15T09:56:28.917Z,29.08
2022-12-15T09:59:43.887Z,28.77
2022-12-15T10:06:07.111Z,31.95
2022-12-15T10:08:34.707Z,26.30
2022-12-15T10:11:05.460Z,36.13
2022-12-15T10:13:51.601Z,31.42
2022-12-15T10:16:22.987Z,31.05
2022-12-15T10:19:01.200Z,25.75
2022-12-15T10:21:30.802Z,28.67
2022-12-15T10:24:08.081Z,27.02
2022-12-15T10:26:35.417Z,27.23
2022-12-15T10:29:04.715Z,31.35
2022-12-15T10:31:41.976Z,22.52
2022-12-15T10:34:24.698Z,30.65
2022-12-15T10:36:52.453Z,30.17
2022-12-15T10:39:21.060Z,33.85
2022-12-15T10:42:18.159Z,35.55
2022-12-15T10:44:50.612Z,26.27
2022-12-15T10:47:23.661Z,34.70
2022-12-15T10:49:50.642Z,30.70
2022-12-15T10:52:37.794Z,23.27
2022-12-15T10:55:40.970Z,30.88
2022-12-15T10:58:23.285Z,28.23
2022-12-15T11:01:06.920Z,31.70
2022-12-15T11:03:38.305Z,30.70
2022-12-15T11:06:15.877Z,29.38
2022-12-15T11:08:44.128Z,26.67
2022-12-15T11:11:45.158Z,26.83
2022-12-15T11:14:16.132Z,27.75
2022-12-15T11:16:49.898Z,23.20
2022-12-15T11:19:26.599Z,27.05
2022-12-15T11:22:00.107Z,29.25
2022-12-15T11:24:39.005Z,31.42
2022-12-15T11:27:30.193Z,32.17
2022-12-15T11:30:24.234Z,29.80
2022-12-15T11:32:55.680Z,32.25
2022-12-15T11:35:28.322Z,28.80
2022-12-15T11:38:25.129Z,27.45
2022-12-15T11:40:54.568Z,30.35
2022-12-15T11:43:41.188Z,29.73
2022-12-15T11:46:27.099Z,29.85
2022-12-15T11:49:12.031Z,32.28
2022-12-15T11:51:54.073Z,30.05
2022-12-15T11:54:30.194Z,25.75
2022-12-15T11:57:16.097Z,33.38
2022-12-15T12:00:00.876Z,29.48
2022-12-15T12:02:44.243Z,27.48
2022-12-15T12:05:59.147Z,26.42
2022-12-15T12:08:44.546Z,29.83
2022-12-15T12:11:18.149Z,37.13
2022-12-15T12:14:11.943Z,31.38
2022-12-15T12:16:57.395Z,30.17
2022-12-15T12:19:31.933Z,36.90
2022-12-15T12:22:13.401Z,30.10
2022-12-15T12:24:45.213Z,35.45
2022-12-15T12:27:39.526Z,27.00
2022-12-15T12:30:13.260Z,31.60
2022-12-15T12:35:31.404Z,28.25
2022-12-15T12:38:05.345Z,28.42
2022-12-15T12:40:52.155Z,28.55
2022-12-15T12:43:32.946Z,27.50
2022-12-15T12:46:40.512Z,29.13
2022-12-15T12:49:22.879Z,38.50
2022-12-15T12:51:55.355Z,31.65
2022-12-15T12:54:37.500Z,37.50
2022-12-15T12:57:13.409Z,34.55
2022-12-15T12:59:49.276Z,29.63
2022-12-15T13:02:21.961Z,35.63
2022-12-15T13:04:57.815Z,36.87
2022-12-15T13:07:38.786Z,34.70
2022-12-15T13:10:19.046Z,39.03
2022-12-15T13:12:54.929Z,44.00
2022-12-15T13:15:27.761Z,41.05
2022-12-15T13:18:00.504Z,35.97
2022-12-15T13:20:29.676Z,30.75
2022-12-15T13:23:16.623Z,28.80
2022-12-15T13:25:53.735Z,30.73
2022-12-15T13:28:39.453Z,33.05
2022-12-15T13:31:16.534Z,31.05
2022-12-15T13:33:49.265Z,46.92
2022-12-15T13:36:37.731Z,37.45
2022-12-15T13:39:25.545Z,46.97
2022-12-15T13:44:45.342Z,50.10
2022-12-15T13:47:28.503Z,49.45
2022-12-15T13:50:03.365Z,44.40
2022-12-15T13:53:17.439Z,38.10
2022-12-15T13:55:37.158Z,50.42
2022-12-15T13:58:15.907Z,52.03
2022-12-15T14:00:54.422Z,39.92
2022-12-15T14:03:21.423Z,44.22
2022-12-15T14:05:59.079Z,36.75
2022-12-15T14:08:28.558Z,36.22
2022-12-15T14:11:07.020Z,32.53
2022-12-15T14:13:38.333Z,32.10
2022-12-15T14:16:17.604Z,38.13
2022-12-15T14:18:44.987Z,35.42
2022-12-15T14:21:30.326Z,52.78
2022-12-15T14:24:37.111Z,57.00
2022-12-15T14:26:48.159Z,35.10
2022-12-15T14:29:17.496Z,30.35
2022-12-15T14:31:51.571Z,35.22
2022-12-15T14:34:36.882Z,25.38
2022-12-15T14:37:10.660Z,29.88
2022-12-15T14:42:19.829Z,37.67
2022-12-15T14:44:50.855Z,34.70
2022-12-15T14:47:35.496Z,46.60
2022-12-15T14:50:04.220Z,46.03
2022-12-15T14:52:42.941Z,44.10
2022-12-15T14:55:27.886Z,44.78
2022-12-15T14:57:54.450Z,45.67
2022-12-15T15:00:29.198Z,34.25
2022-12-15T15:03:18.153Z,45.58
2022-12-15T15:05:48.331Z,43.83
2022-12-15T15:08:36.859Z,30.75
2022-12-15T15:11:36.446Z,31.85
2022-12-15T15:14:16.952Z,30.63
2022-12-15T15:16:44.192Z,31.55
2022-12-15T15:19:20.535Z,34.72
2022-12-15T15:21:47.934Z,39.13
2022-12-15T15:24:14.665Z,39.55
2022-12-15T15:26:41.268Z,31.38
2022-12-15T15:29:32.636Z,42.58
2022-12-15T15:32:20.269Z,39.03
2022-12-15T15:34:47.568Z,41.95
2022-12-15T15:37:25.036Z,48.50
2022-12-15T15:39:54.064Z,45.50
2022-12-15T15:42:20.858Z,53.53
2022-12-15T15:44:47.642Z,44.95
2022-12-15T15:47:26.484Z,42.95
2022-12-15T15:49:54.925Z,41.35
2022-12-15T15:52:22.407Z,39.33
2022-12-15T15:54:49.211Z,30.33
2022-12-15T15:57:17.246Z,38.08
2022-12-15T15:59:44.799Z,42.80
2022-12-15T16:02:13.458Z,39.75
2022-12-15T16:04:42.388Z,36.88
2022-12-15T16:07:27.913Z,37.70
2022-12-15T16:09:55.114Z,36.03
2022-12-15T16:12:39.087Z,31.88
2022-12-15T16:15:31.494Z,40.53
2022-12-15T16:17:59.223Z,35.72
2022-12-15T16:20:29.173Z,44.17
2022-12-15T16:23:02.308Z,36.40
2022-12-15T16:25:46.606Z,37.47
2022-12-15T16:28:26.368Z,32.63
2022-12-15T16:30:53.019Z,35.35
2022-12-15T16:33:19.944Z,38.00
2022-12-15T16:35:50.030Z,37.55
2022-12-15T16:38:22.685Z,42.80
2022-12-15T16:40:49.269Z,34.53
2022-12-15T16:43:22.065Z,36.22
2022-12-15T16:45:51.171Z,37.25
2022-12-15T16:48:18.152Z,34.70
2022-12-15T16:50:51.910Z,35.42
2022-12-15T16:56:07.818Z,32.72
2022-12-15T16:58:36.049Z,35.97
2022-12-15T17:01:04.001Z,38.13
2022-12-15T17:03:31.133Z,31.55
2022-12-15T17:06:01.311Z,37.70
2022-12-15T17:08:35.170Z,37.00
2022-12-15T17:11:02.056Z,33.13
2022-12-15T17:13:45.638Z,32.25
2022-12-15T17:16:15.608Z,36.20
2022-12-15T17:18:43.013Z,35.38
2022-12-15T17:21:17.186Z,42.03
2022-12-15T17:23:47.580Z,36.85
2022-12-15T17:26:29.610Z,35.10
2022-12-15T17:29:01.149Z,45.72
2022-12-15T17:31:34.672Z,35.25
2022-12-15T17:34:21.987Z,35.63
2022-12-15T17:36:48.518Z,40.30
2022-12-15T17:39:16.741Z,36.42
2022-12-15T17:41:59.350Z,34.35
2022-12-15T17:44:34.750Z,41.33
2022-12-15T17:47:04.597Z,37.92
2022-12-15T17:49:35.451Z,38.85
2022-12-15T17:52:25.247Z,43.97
2022-12-15T17:54:52.272Z,32.20
2022-12-15T17:57:18.816Z,44.25
2022-12-15T17:59:45.583Z,37.53
2022-12-15T18:02:14.171Z,42.25
2022-12-15T18:04:42.233Z,44.80
2022-12-15T18:07:26.750Z,40.05
2022-12-15T18:09:53.565Z,31.77
2022-12-15T18:12:22.593Z,48.33
2022-12-15T18:14:49.579Z,31.38
2022-12-15T18:17:16.510Z,23.98
2022-12-15T18:19:43.240Z,40.20
2022-12-15T18:22:16.985Z,45.85
2022-12-15T18:27:25.191Z,44.00
2022-12-15T18:29:51.871Z,40.00
2022-12-15T18:32:19.357Z,40.22
2022-12-15T18:34:46.816Z,39.42
2022-12-15T18:37:17.882Z,44.53
2022-12-15T18:39:45.175Z,54.67
2022-12-15T18:42:16.932Z,41.20
2022-12-15T18:44:49.093Z,45.00
2022-12-15T18:47:21.632Z,36.42
2022-12-15T18:49:48.267Z,47.80
2022-12-15T18:52:17.978Z,47.05
2022-12-15T18:54:44.972Z,39.08
2022-12-15T18:57:24.882Z,46.92
2022-12-15T18:59:51.471Z,36.20
2022-12-15T19:02:18.112Z,45.33
2022-12-15T19:04:44.749Z,37.20
2022-12-15T19:07:11.547Z,35.47
2022-12-15T19:09:38.177Z,33.20
2022-12-15T19:12:20.244Z,45.75
2022-12-15T19:14:49.953Z,47.05
2022-12-15T19:17:37.606Z,38.58
2022-12-15T19:20:25.727Z,60.28
2022-12-15T19:22:52.629Z,42.08
2022-12-15T19:25:25.976Z,33.63
2022-12-15T19:30:30.393Z,43.35
2022-12-15T19:32:56.929Z,46.28
2022-12-15T19:35:24.818Z,39.90
2022-12-15T19:37:55.167Z,42.00
2022-12-15T19:40:30.477Z,36.90
2022-12-15T19:42:58.260Z,42.63
2022-12-15T19:45:28.233Z,38.63
2022-12-15T19:47:55.463Z,31.35
2022-12-15T19:50:25.625Z,43.75
2022-12-15T19:52:58.208Z,42.00
2022-12-15T19:55:28.740Z,35.28
2022-12-15T19:57:55.317Z,32.40
2022-12-15T20:00:22.815Z,30.90
2022-12-15T20:02:51.457Z,34.47
2022-12-15T20:05:19.416Z,46.50
2022-12-15T20:07:46.503Z,43.22
2022-12-15T20:10:24.382Z,40.92
2022-12-15T20:12:54.466Z,36.67
2022-12-15T20:15:24.927Z,38.30
2022-12-15T20:17:56.907Z,35.08
2022-12-15T20:20:25.824Z,30.17
2022-12-15T20:22:55.450Z,32.38
2022-12-15T20:25:30.848Z,36.65
2022-12-15T20:27:57.723Z,36.30
2022-12-15T20:30:27.660Z,31.67
2022-12-15T20:32:54.344Z,32.38
2022-12-15T20:35:22.546Z,36.65
2022-12-15T20:37:50.225Z,36.88
2022-12-15T20:40:16.710Z,32.90
2022-12-15T20:42:43.349Z,31.30
2022-12-15T20:45:12.846Z,36.97
2022-12-15T20:47:41.479Z,33.65
2022-12-15T20:50:23.819Z,36.17
2022-12-15T20:52:51.526Z,30.92
2022-12-15T20:55:18.401Z,28.80
2022-12-15T20:57:44.933Z,34.70
2022-12-15T21:00:13.309Z,27.48
2022-12-15T21:02:40.468Z,39.38
2022-12-15T21:05:08.381Z,34.50
2022-12-15T21:07:35.741Z,34.75
2022-12-15T21:10:02.315Z,35.10
2022-12-15T21:12:28.922Z,31.33
2022-12-15T21:14:55.525Z,36.17
2022-12-15T21:17:25.664Z,30.05
2022-12-15T21:19:52.847Z,34.17
2022-12-15T21:22:25.204Z,42.58
2022-12-15T21:24:54.475Z,39.25
2022-12-15T21:27:21.897Z,32.83
2022-12-15T21:29:52.227Z,35.00
2022-12-15T21:32:19.930Z,30.40
2022-12-15T21:34:46.472Z,30.17
2022-12-15T21:37:27.037Z,38.03
2022-12-15T21:39:54.299Z,47.22
2022-12-15T21:42:21.737Z,42.75
2022-12-15T21:44:48.594Z,43.28
2022-12-15T21:47:25.633Z,51.83
2022-12-15T21:49:52.603Z,38.40
2022-12-15T21:52:19.759Z,43.20
2022-12-15T21:54:46.328Z,39.25
2022-12-15T21:57:12.962Z,49.35
2022-12-15T21:59:39.745Z,33.33
2022-12-15T22:02:38.874Z,48.00
2022-12-15T22:05:20.818Z,46.65
2022-12-15T22:07:48.975Z,50.80
2022-12-15T22:10:16.367Z,35.00
2022-12-15T22:12:44.668Z,37.40
2022-12-15T22:15:17.309Z,58.78
2022-12-15T22:17:44.185Z,41.20
2022-12-15T22:20:20.050Z,59.60
2022-12-15T22:22:47.058Z,82.68
2022-12-15T22:25:19.630Z,45.55
2022-12-15T22:27:47.060Z,39.85
2022-12-15T22:30:23.432Z,61.90
2022-12-15T22:32:50.423Z,73.78
2022-12-15T22:35:22.746Z,52.47
2022-12-15T22:37:53.443Z,61.13
2022-12-15T22:40:21.002Z,84.38
2022-12-15T22:42:52.181Z,68.10
2022-12-15T22:45:21.130Z,55.63
2022-12-15T22:47:49.175Z,55.42
2022-12-15T22:50:26.366Z,55.83
2022-12-15T22:52:53.054Z,58.35
2022-12-15T22:55:22.837Z,67.40
2022-12-15T22:58:03.612Z,84.32
2022-12-15T23:00:30.143Z,53.70
2022-12-15T23:05:25.410Z,81.22
2022-12-15T23:07:53.157Z,134.15
2022-12-15T23:10:40.491Z,102.70
2022-12-15T23:13:07.308Z,64.32
2022-12-15T23:15:53.052Z,118.78
2022-12-15T23:18:21.637Z,96.85
2022-12-15T23:20:48.385Z,85.45
2022-12-15T23:23:15.469Z,100.90
2022-12-15T23:25:42.097Z,61.95
2022-12-15T23:28:08.810Z,86.25
2022-12-15T23:30:35.997Z,82.25
2022-12-15T23:33:02.560Z,86.63
2022-12-15T23:35:29.783Z,89.57
2022-12-15T23:37:58.224Z,74.10
2022-12-15T23:40:24.805Z,60.70
2022-12-15T23:42:52.187Z,101.85
2022-12-15T23:45:19.956Z,71.22
2022-12-15T23:47:46.596Z,68.68
2022-12-15T23:50:14.265Z,73.28
2022-12-15T23:52:40.879Z,85.05
2022-12-15T23:55:12.227Z,70.85
2022-12-15T23:57:40.353Z,52.60
